Time;durP1;ratioP1;P1;durP2;ratioP2;P2;SDS_P1;SDS_P2;PMS_P1;PMS_P2;Temp;Humidity;BMP_temperature;BMP_pressure;BME280_temperature;BME280_humidity;BME280_pressure;Samples;Min_cycle;Max_cycle;Signal;HPM_P1;HPM_P2
2023/03/17 00:00:00;;;;;;;4.90;1.83;;;;;;;19.23;38.39;100669.31;16107880;19;129768;-47
2023/03/17 00:05:26;;;;;;;2.63;1.65;;;;;;;19.21;38.67;100665.97;16110485;19;130690;-44
2023/03/17 00:10:49;;;;;;;3.88;1.98;;;;;;;19.17;38.63;100659.25;16109930;19;129982;-43
2023/03/17 00:16:24;;;;;;;7.93;1.85;;;;;;;19.15;38.50;100667.78;16118950;19;131987;-43
2023/03/17 00:21:46;;;;;;;3.23;1.20;;;;;;;19.12;38.41;100675.78;16126135;19;130430;-45
2023/03/17 00:27:11;;;;;;;5.70;1.63;;;;;;;19.10;38.50;100675.19;16125779;19;130063;-46
2023/03/17 00:32:33;;;;;;;5.38;1.50;;;;;;;19.07;38.73;100671.88;16115772;19;130924;-45
2023/03/17 00:37:56;;;;;;;3.00;1.33;;;;;;;19.04;38.33;100660.44;16118680;19;130266;-46
2023/03/17 00:43:18;;;;;;;2.88;1.30;;;;;;;19.01;38.64;100656.25;16120852;19;129121;-45
2023/03/17 00:48:42;;;;;;;2.72;1.35;;;;;;;18.99;38.48;100654.84;16126467;19;130111;-47
2023/03/17 00:54:04;;;;;;;2.42;1.35;;;;;;;18.97;38.57;100655.06;16123714;19;129724;-46
2023/03/17 00:59:39;;;;;;;4.03;1.40;;;;;;;18.96;38.54;100645.06;16121074;19;129805;-44
2023/03/17 01:05:01;;;;;;;3.83;1.70;;;;;;;18.93;38.17;100653.91;16124659;19;129797;-42
2023/03/17 01:10:31;;;;;;;3.42;1.50;;;;;;;18.91;38.25;100647.78;16119287;19;131248;-46
2023/03/17 01:15:55;;;;;;;3.63;1.58;;;;;;;18.89;38.36;100656.34;16123147;19;133685;-48
2023/03/17 01:21:17;;;;;;;6.20;1.23;;;;;;;18.87;38.23;100638.28;16121953;19;131364;-48
2023/03/17 01:26:39;;;;;;;2.78;1.40;;;;;;;18.86;38.37;100647.69;16118748;19;130777;-43
2023/03/17 01:32:01;;;;;;;4.57;1.40;;;;;;;18.83;37.92;100640.75;16113139;19;131292;-44
2023/03/17 01:37:23;;;;;;;2.55;1.30;;;;;;;18.82;38.01;100621.59;16117947;19;129513;-46
2023/03/17 01:42:59;;;;;;;1.98;1.10;;;;;;;18.82;38.04;100627.97;16113191;19;130026;-48
2023/03/17 01:48:22;;;;;;;3.58;1.27;;;;;;;18.78;37.96;100618.47;16110134;19;130141;-46
2023/03/17 01:53:47;;;;;;;3.92;1.33;;;;;;;18.77;38.13;100614.03;16117388;19;130569;-44
2023/03/17 01:59:16;;;;;;;2.80;1.20;;;;;;;18.74;38.05;100609.84;16116052;19;130554;-44
2023/03/17 02:04:39;;;;;;;3.08;1.20;;;;;;;18.73;38.22;100602.63;16116625;19;131611;-44
2023/03/17 02:10:03;;;;;;;5.00;1.33;;;;;;;18.72;37.69;100595.41;16116872;19;130020;-45
2023/03/17 02:15:45;;;;;;;2.15;1.30;;;;;;;18.71;37.98;100595.66;16117456;19;130495;-45
2023/03/17 02:21:33;;;;;;;2.33;1.13;;;;;;;18.68;38.00;100583.16;16115877;19;130888;-48
2023/03/17 02:26:59;;;;;;;2.90;1.13;;;;;;;18.66;37.62;100571.50;16110481;19;129976;-48
2023/03/17 02:32:21;;;;;;;1.63;1.13;;;;;;;18.65;37.68;100575.34;16117327;19;129513;-47
2023/03/17 02:37:44;;;;;;;2.85;1.00;;;;;;;18.64;37.78;100590.31;16111754;19;130567;-43
2023/03/17 02:43:06;;;;;;;2.33;1.15;;;;;;;18.63;37.76;100582.25;16113863;19;129384;-44
2023/03/17 02:48:28;;;;;;;5.13;1.20;;;;;;;18.61;37.46;100574.19;16109793;19;129607;-45
2023/03/17 02:53:50;;;;;;;2.95;1.10;;;;;;;18.59;37.78;100577.22;16112588;19;130220;-45
2023/03/17 02:59:12;;;;;;;2.55;0.98;;;;;;;18.58;37.75;100596.88;16110828;19;130561;-46
2023/03/17 03:04:34;;;;;;;2.22;1.13;;;;;;;18.56;37.57;100596.28;16110352;19;129522;-46
2023/03/17 03:09:56;;;;;;;2.20;1.00;;;;;;;18.55;37.50;100591.84;16111032;19;130307;-48
2023/03/17 03:15:19;;;;;;;2.28;0.88;;;;;;;18.53;37.63;100588.47;16111112;19;132091;-46
2023/03/17 03:20:43;;;;;;;2.17;0.95;;;;;;;18.52;37.83;100595.97;16111718;19;130946;-45
2023/03/17 03:26:05;;;;;;;1.13;0.90;;;;;;;18.50;37.72;100597.28;16109394;19;130115;-45
2023/03/17 03:31:27;;;;;;;3.13;1.10;;;;;;;18.50;37.63;100602.81;16113274;19;129632;-46
2023/03/17 03:36:49;;;;;;;1.75;1.00;;;;;;;18.49;37.33;100603.91;16112748;19;129704;-46
2023/03/17 03:42:11;;;;;;;2.00;1.00;;;;;;;18.48;37.73;100616.09;16112085;19;130653;-44
2023/03/17 03:47:33;;;;;;;3.60;1.10;;;;;;;18.46;37.76;100611.63;16113769;19;131886;-45
2023/03/17 03:52:55;;;;;;;1.88;1.00;;;;;;;18.44;37.44;100608.31;16127311;19;131171;-45
2023/03/17 03:58:16;;;;;;;1.65;1.02;;;;;;;18.44;37.29;100613.00;16119830;19;131305;-45
2023/03/17 04:03:38;;;;;;;1.67;0.80;;;;;;;18.42;37.43;100616.03;16124641;19;130287;-46
2023/03/17 04:09:01;;;;;;;2.08;0.95;;;;;;;18.41;37.25;100619.88;16125938;19;129368;-48
2023/03/17 04:14:23;;;;;;;1.90;1.20;;;;;;;18.40;37.65;100615.44;16126420;19;129393;-45
2023/03/17 04:19:45;;;;;;;1.02;0.80;;;;;;;18.39;37.63;100612.91;16125558;19;130961;-47
2023/03/17 04:25:09;;;;;;;1.00;0.80;;;;;;;18.37;37.39;100602.06;16122065;19;130390;-44
2023/03/17 04:30:31;;;;;;;2.03;0.95;;;;;;;18.35;37.53;100604.22;16123324;19;130393;-46
2023/03/17 04:35:53;;;;;;;2.78;0.82;;;;;;;18.34;37.34;100613.63;16124677;19;130587;-44
2023/03/17 04:41:15;;;;;;;1.60;1.02;;;;;;;18.32;37.26;100604.75;16124048;19;130488;-47
2023/03/17 04:46:37;;;;;;;1.45;0.90;;;;;;;18.32;37.32;100604.75;16122981;19;132175;-46
2023/03/17 04:51:59;;;;;;;1.55;0.80;;;;;;;18.30;37.65;100612.47;16116982;19;130790;-45
2023/03/17 04:57:23;;;;;;;1.63;0.90;;;;;;;18.29;37.64;100617.16;16123025;19;130778;-46
2023/03/17 05:02:45;;;;;;;1.70;0.80;;;;;;;18.27;37.59;100613.81;16117744;19;129556;-45
2023/03/17 05:08:06;;;;;;;1.38;0.90;;;;;;;18.27;37.31;100613.81;16120245;19;130245;-43
2023/03/17 05:13:28;;;;;;;1.45;0.82;;;;;;;18.26;37.58;100606.59;16120803;19;130359;-46
2023/03/17 05:18:50;;;;;;;1.10;0.70;;;;;;;18.25;37.59;100598.53;16120874;19;131471;-46
2023/03/17 05:24:12;;;;;;;1.77;0.90;;;;;;;18.23;37.41;100598.78;16119183;19;132678;-46
2023/03/17 05:29:34;;;;;;;0.90;0.73;;;;;;;18.22;37.52;100604.56;16122359;19;130722;-44
2023/03/17 05:34:56;;;;;;;1.10;0.75;;;;;;;18.22;37.12;100593.47;16120320;19;130426;-46
2023/03/17 05:40:18;;;;;;;1.48;0.77;;;;;;;18.21;37.54;100602.91;16119501;19;134358;-45
2023/03/17 05:45:43;;;;;;;2.15;0.90;;;;;;;18.21;37.29;100605.69;16119081;19;129621;-45
2023/03/17 05:51:05;;;;;;;1.10;0.80;;;;;;;18.20;37.13;100617.84;16122844;19;129557;-42
2023/03/17 05:56:32;;;;;;;2.35;0.90;;;;;;;18.18;37.34;100608.94;16116988;19;132345;-46
2023/03/17 06:01:55;;;;;;;2.67;0.82;;;;;;;18.18;37.12;100611.72;16113527;19;129965;-42
2023/03/17 06:07:16;;;;;;;1.55;0.80;;;;;;;18.20;37.29;100596.53;16114978;19;131453;-43
2023/03/17 06:12:38;;;;;;;1.48;0.88;;;;;;;18.55;37.04;100598.19;16113077;19;129447;-44
2023/03/17 06:18:01;;;;;;;6.50;1.02;;;;;;;19.03;36.28;100594.97;16119022;19;131131;-48
2023/03/17 06:23:23;;;;;;;18.60;1.23;;;;;;;19.34;35.74;100599.00;16115936;19;130595;-46
2023/03/17 06:28:45;;;;;;;11.38;1.08;;;;;;;19.49;34.86;100591.97;16120497;19;130736;-43
2023/03/17 06:34:07;;;;;;;7.15;1.30;;;;;;;19.54;35.04;100592.03;16119538;19;129587;-44
2023/03/17 06:39:29;;;;;;;7.00;1.02;;;;;;;19.52;34.44;100610.88;16114076;19;129319;-45
2023/03/17 06:44:51;;;;;;;8.80;1.20;;;;;;;19.47;34.71;100613.56;16116758;19;130438;-44
2023/03/17 06:50:13;;;;;;;7.07;1.15;;;;;;;19.37;34.66;100604.03;16112426;19;129456;-48
2023/03/17 06:55:35;;;;;;;8.45;1.00;;;;;;;19.30;34.47;100600.66;16112932;19;129603;-43
2023/03/17 07:00:58;;;;;;;5.55;1.20;;;;;;;19.24;34.85;100595.28;16112636;19;129756;-47
2023/03/17 07:06:22;;;;;;;7.85;1.20;;;;;;;19.17;34.52;100581.59;16109044;19;131189;-43
2023/03/17 07:11:43;;;;;;;6.60;1.45;;;;;;;19.08;35.04;100572.88;16111486;19;130232;-46
2023/03/17 07:17:05;;;;;;;5.80;1.10;;;;;;;19.01;35.21;100592.47;16113631;19;132342;-44
2023/03/17 07:22:27;;;;;;;5.05;1.58;;;;;;;18.97;34.81;100604.34;16120215;19;131170;-45
2023/03/17 07:27:50;;;;;;;12.85;1.33;;;;;;;18.91;35.03;100611.75;16132429;19;129476;-47
2023/03/17 07:33:13;;;;;;;7.32;1.00;;;;;;;18.85;35.30;100587.81;16126622;19;129493;-43
2023/03/17 07:38:36;;;;;;;3.63;1.10;;;;;;;18.90;35.01;100604.53;16133211;19;129592;-43
2023/03/17 07:43:57;;;;;;;5.13;1.10;;;;;;;19.01;34.92;100600.78;16127886;19;135712;-43
2023/03/17 07:49:20;;;;;;;8.38;1.20;;;;;;;19.15;35.29;100611.50;16123778;19;130689;-45
2023/03/17 07:55:01;;;;;;;5.25;1.23;;;;;;;19.30;34.66;100620.06;16124470;19;130685;-43
2023/03/17 08:00:23;;;;;;;6.38;1.13;;;;;;;19.45;34.57;100599.97;16123507;19;129503;-43
2023/03/17 08:05:52;;;;;;;4.43;0.88;;;;;;;19.61;34.39;100576.00;16125727;19;130631;-43
2023/03/17 08:11:13;;;;;;;5.85;1.02;;;;;;;19.79;34.36;100577.56;16127981;19;129803;-45
2023/03/17 08:16:36;;;;;;;6.68;1.20;;;;;;;20.21;33.84;100589.09;16128403;19;129633;-44
2023/03/17 08:21:58;;;;;;;8.75;1.38;;;;;;;20.55;33.05;100600.75;16131631;19;130739;-47
2023/03/17 08:27:21;;;;;;;12.68;1.65;;;;;;;20.71;32.77;100603.59;16126370;19;130477;-46
2023/03/17 08:32:43;;;;;;;10.40;1.70;;;;;;;20.75;32.65;100597.25;16123180;19;130168;-44
2023/03/17 08:38:05;;;;;;;5.10;1.25;;;;;;;20.45;33.04;100583.97;16125604;19;129254;-45
2023/03/17 08:43:27;;;;;;;11.75;1.67;;;;;;;20.21;33.17;100577.97;16123365;19;129622;-45
2023/03/17 08:48:51;;;;;;;7.20;1.70;;;;;;;19.98;33.62;100605.78;16124656;19;129697;-48
2023/03/17 08:54:14;;;;;;;8.55;1.42;;;;;;;19.78;33.71;100600.88;16125637;19;130705;-43
2023/03/17 08:59:36;;;;;;;10.40;1.20;;;;;;;19.60;33.84;100587.38;16123805;19;130409;-45
2023/03/17 09:04:57;;;;;;;9.45;1.23;;;;;;;19.47;34.00;100581.13;16121168;19;134829;-45
2023/03/17 09:10:21;;;;;;;6.78;1.38;;;;;;;19.39;34.31;100578.81;16126730;19;129605;-47
2023/03/17 09:15:43;;;;;;;6.85;1.52;;;;;;;19.33;34.07;100597.31;16121672;19;129149;-43
2023/03/17 09:21:05;;;;;;;13.13;2.10;;;;;;;19.27;34.59;100609.47;16124427;19;129763;-44
2023/03/17 09:26:27;;;;;;;13.65;2.15;;;;;;;19.23;34.13;100599.97;16119213;19;131306;-45
2023/03/17 09:31:49;;;;;;;15.88;1.85;;;;;;;19.20;34.48;100608.81;16124556;19;130814;-45
2023/03/17 09:37:11;;;;;;;15.50;1.52;;;;;;;19.16;34.42;100627.88;16122107;19;129302;-49
2023/03/17 09:42:47;;;;;;;15.05;1.67;;;;;;;19.12;34.74;100643.38;16121683;19;130368;-49
2023/03/17 09:48:21;;;;;;;17.30;1.90;;;;;;;19.03;35.04;100665.16;16121039;19;129550;-47
2023/03/17 09:54:03;;;;;;;10.20;1.63;;;;;;;19.02;34.88;100668.16;16119327;19;129780;-45
2023/03/17 09:59:39;;;;;;;13.80;1.92;;;;;;;18.97;35.11;100663.38;16119681;19;130803;-44
2023/03/17 10:05:18;;;;;;;;;;;;;;;18.93;35.09;100651.16;16117592;19;129444;-48
2023/03/17 10:10:53;;;;;;;15.05;2.03;;;;;;;18.94;35.45;100633.41;16120792;19;129375;-49
2023/03/17 10:16:21;;;;;;;8.98;1.50;;;;;;;18.91;35.55;100622.84;16119970;19;129694;-46
2023/03/17 10:21:57;;;;;;;15.20;1.92;;;;;;;18.89;35.34;100631.38;16115166;19;129418;-47
2023/03/17 10:27:20;;;;;;;5.07;1.40;;;;;;;18.88;35.79;100626.13;16121847;19;131689;-45
2023/03/17 10:32:43;;;;;;;8.90;1.50;;;;;;;18.89;35.48;100623.06;16118701;19;129435;-48
2023/03/17 10:38:21;;;;;;;8.10;1.70;;;;;;;18.91;35.60;100617.28;16113255;19;130996;-45
2023/03/17 10:43:47;;;;;;;7.00;1.67;;;;;;;18.89;35.72;100623.06;16113301;19;129266;-48
2023/03/17 10:49:16;;;;;;;9.20;1.70;;;;;;;18.93;35.91;100626.19;16117622;19;129149;-47
2023/03/17 10:54:38;;;;;;;7.40;1.63;;;;;;;18.92;36.33;100624.53;16117821;19;133156;-45
2023/03/17 11:00:00;;;;;;;14.95;2.15;;;;;;;18.90;36.51;100615.63;16117496;19;130062;-47
2023/03/17 11:05:26;;;;;;;11.15;2.28;;;;;;;18.91;36.98;100611.75;16116542;19;130747;-46
2023/03/17 11:10:53;;;;;;;12.15;1.83;;;;;;;18.95;36.69;100610.16;16117675;19;129891;-52
2023/03/17 11:16:23;;;;;;;12.18;2.63;;;;;;;18.95;37.59;100600.97;16116624;19;130610;-48
2023/03/17 11:22:03;;;;;;;17.15;2.08;;;;;;;18.99;37.89;100597.44;16116468;19;129495;-48
2023/03/17 11:27:25;;;;;;;20.60;2.47;;;;;;;19.04;37.85;100591.97;16111956;19;129776;-50
2023/03/17 11:32:56;;;;;;;20.10;2.10;;;;;;;19.13;38.05;100589.59;16116525;19;129962;-46
2023/03/17 11:38:27;;;;;;;21.17;2.72;;;;;;;19.27;38.21;100578.13;16108774;19;131685;-46
2023/03/17 11:44:19;;;;;;;14.15;2.47;;;;;;;19.45;38.05;100572.25;16115095;19;129526;-48
2023/03/17 11:49:49;;;;;;;39.20;2.60;;;;;;;19.52;37.97;100577.59;16113641;19;130897;-47
2023/03/17 11:55:22;;;;;;;15.77;2.22;;;;;;;19.58;37.64;100570.97;16110193;19;129631;-49
2023/03/17 12:00:51;;;;;;;16.15;2.28;;;;;;;19.66;37.53;100578.00;16112010;19;129207;-47
2023/03/17 12:06:24;;;;;;;16.05;2.08;;;;;;;19.71;37.54;100591.06;16113245;19;131678;-48
2023/03/17 12:11:48;;;;;;;26.05;2.55;;;;;;;19.68;38.04;100579.44;16124760;19;129595;-46
2023/03/17 12:17:21;;;;;;;9.63;2.05;;;;;;;19.68;37.80;100571.09;16127839;19;130107;-51
2023/03/17 12:22:50;;;;;;;;;;;;;;;19.61;38.51;100564.09;16129871;19;129605;-50
2023/03/17 12:28:21;;;;;;;16.17;2.07;;;;;;;19.58;38.22;100551.53;16125223;19;129906;-47
2023/03/17 12:33:47;;;;;;;10.70;1.42;;;;;;;19.55;38.24;100557.66;16126534;19;130251;-52
2023/03/17 12:39:22;;;;;;;;;;;;;;;19.50;38.36;100560.34;16126785;19;128896;-47
2023/03/17 12:44:50;;;;;;;8.73;2.08;;;;;;;19.50;38.72;100543.72;16121920;19;131870;-46
2023/03/17 12:50:27;;;;;;;6.80;1.92;;;;;;;19.47;38.81;100538.66;16124454;19;129992;-52
2023/03/17 12:55:52;;;;;;;13.88;1.95;;;;;;;19.43;38.68;100552.22;16125570;19;131817;-52
2023/03/17 13:01:14;;;;;;;6.60;1.60;;;;;;;19.40;38.94;100544.44;16121072;19;130900;-52
2023/03/17 13:06:45;;;;;;;6.60;1.75;;;;;;;19.39;38.93;100534.44;16122259;19;130709;-52
2023/03/17 13:12:39;;;;;;;6.78;1.52;;;;;;;19.37;38.70;100531.94;16122634;19;130887;-48
2023/03/17 13:18:14;;;;;;;8.88;1.80;;;;;;;19.35;39.11;100522.19;16120800;19;131120;-50
2023/03/17 13:23:42;;;;;;;7.90;1.50;;;;;;;19.33;38.87;100514.13;16122917;19;129446;-51
2023/03/17 13:29:23;;;;;;;5.85;1.67;;;;;;;19.32;38.91;100506.06;16121842;19;130218;-46
2023/03/17 13:34:54;;;;;;;5.63;1.40;;;;;;;19.29;38.94;100504.66;16120304;19;129744;-47
2023/03/17 13:40:25;;;;;;;6.82;1.30;;;;;;;19.28;38.58;100494.66;16119383;19;129456;-52
2023/03/17 13:45:47;;;;;;;5.53;1.20;;;;;;;19.24;38.99;100490.72;16119693;19;130366;-49
2023/03/17 13:51:32;;;;;;;5.15;1.33;;;;;;;19.26;38.93;100483.00;16115757;19;129814;-49
2023/03/17 13:57:18;;;;;;;8.05;1.67;;;;;;;19.24;38.95;100471.31;16116245;19;129818;-50
2023/03/17 14:02:42;;;;;;;4.70;1.35;;;;;;;19.21;39.01;100449.66;16117479;19;129692;-50
2023/03/17 14:08:07;;;;;;;4.65;1.40;;;;;;;19.20;39.01;100464.59;16116141;19;129229;-51
2023/03/17 14:13:48;;;;;;;7.30;1.20;;;;;;;19.21;39.11;100456.06;16112666;19;130048;-51
2023/03/17 14:19:18;;;;;;;3.67;1.52;;;;;;;19.20;38.76;100446.03;16115310;19;130259;-50
2023/03/17 14:24:40;;;;;;;5.45;1.38;;;;;;;19.19;38.70;100446.28;16114789;19;131039;-52
2023/03/17 14:30:08;;;;;;;11.07;1.42;;;;;;;19.20;39.01;100448.78;16117127;19;131744;-49
2023/03/17 14:35:36;;;;;;;5.47;1.65;;;;;;;19.19;38.90;100447.13;16117868;19;129126;-47
2023/03/17 14:41:17;;;;;;;8.02;1.30;;;;;;;19.19;38.73;100441.56;16119230;19;134540;-48
2023/03/17 14:46:40;;;;;;;3.58;1.10;;;;;;;19.17;38.10;100435.44;16116407;19;130953;-48
2023/03/17 14:52:01;;;;;;;6.90;1.60;;;;;;;19.16;38.12;100430.19;16114278;19;130908;-45
2023/03/17 14:57:30;;;;;;;5.55;1.52;;;;;;;19.16;38.16;100441.28;16114656;19;131323;-48
2023/03/17 15:02:57;;;;;;;7.65;1.60;;;;;;;19.14;38.10;100454.56;16112614;19;132941;-49
2023/03/17 15:08:46;;;;;;;5.40;1.30;;;;;;;19.13;37.58;100452.88;16114383;19;131030;-46
2023/03/17 15:14:24;;;;;;;5.25;1.33;;;;;;;19.12;37.47;100456.75;16114720;19;130489;-50
2023/03/17 15:19:49;;;;;;;5.00;1.55;;;;;;;19.09;37.59;100455.34;16116361;19;129565;-53
2023/03/17 15:25:37;;;;;;;4.67;1.50;;;;;;;19.09;37.60;100455.34;16117189;19;129770;-50
2023/03/17 15:31:11;;;;;;;3.25;1.30;;;;;;;19.06;37.54;100459.47;16115442;19;130184;-47
2023/03/17 15:36:33;;;;;;;4.35;1.50;;;;;;;19.04;37.62;100456.13;16116271;19;130088;-49
2023/03/17 15:41:55;;;;;;;3.88;1.40;;;;;;;19.02;37.14;100463.84;16117463;19;129538;-50
2023/03/17 15:47:19;;;;;;;7.38;1.33;;;;;;;19.02;37.15;100477.72;16130493;19;129469;-48
2023/03/17 15:52:42;;;;;;;3.80;1.63;;;;;;;18.99;37.16;100475.47;16128631;19;129986;-47
2023/03/17 15:58:04;;;;;;;5.30;1.42;;;;;;;18.98;37.35;100479.31;16126438;19;131643;-48
2023/03/17 16:03:34;;;;;;;3.35;1.27;;;;;;;18.98;36.93;100476.56;16122003;19;130485;-47
2023/03/17 16:08:55;;;;;;;3.47;1.20;;;;;;;18.95;37.29;100485.41;16127801;19;129222;-50
2023/03/17 16:14:17;;;;;;;4.47;1.25;;;;;;;18.94;36.96;100489.28;16126009;19;129513;-50
2023/03/17 16:19:39;;;;;;;4.05;1.38;;;;;;;18.97;37.04;100477.66;16128695;19;129782;-48
2023/03/17 16:25:02;;;;;;;2.95;1.02;;;;;;;19.02;36.91;100477.72;16123683;19;131027;-50
2023/03/17 16:30:28;;;;;;;5.75;1.20;;;;;;;19.12;37.01;100484.47;16124237;19;129634;-49
2023/03/17 16:35:52;;;;;;;4.82;1.38;;;;;;;19.24;36.65;100487.97;16125682;19;129730;-51
2023/03/17 16:41:22;;;;;;;3.53;1.30;;;;;;;19.36;36.81;100474.78;16122087;19;130743;-54
2023/03/17 16:46:44;;;;;;;4.50;1.23;;;;;;;19.44;36.85;100492.06;16119291;19;129567;-47
2023/03/17 16:52:06;;;;;;;2.88;1.02;;;;;;;19.45;36.55;100494.56;16122834;19;129627;-47
2023/03/17 16:57:28;;;;;;;5.10;1.30;;;;;;;19.45;36.48;100504.81;16125738;19;132083;-50
2023/03/17 17:02:51;;;;;;;4.57;1.67;;;;;;;19.42;36.67;100505.34;16124715;19;130225;-49
2023/03/17 17:08:14;;;;;;;4.47;1.48;;;;;;;19.38;36.53;100511.41;16116485;19;130026;-47
2023/03/17 17:13:36;;;;;;;3.65;1.15;;;;;;;19.34;36.66;100510.25;16121498;19;129693;-48
2023/03/17 17:18:58;;;;;;;4.43;1.33;;;;;;;19.30;36.91;100517.44;16118545;19;132543;-50
2023/03/17 17:24:20;;;;;;;5.82;1.70;;;;;;;19.26;36.65;100530.13;16120518;19;130162;-47
2023/03/17 17:29:42;;;;;;;5.03;1.30;;;;;;;19.22;36.96;100526.19;16118152;19;130989;-47
2023/03/17 17:35:05;;;;;;;5.88;1.27;;;;;;;19.18;37.07;100542.50;16116747;19;130389;-47
2023/03/17 17:40:28;;;;;;;4.60;1.40;;;;;;;19.20;37.17;100540.31;16116421;19;129347;-49
2023/03/17 17:45:51;;;;;;;3.95;1.30;;;;;;;19.44;37.42;100542.00;16121034;19;130938;-48
2023/03/17 17:51:13;;;;;;;7.60;1.95;;;;;;;19.83;36.92;100550.13;16109165;19;130677;-51
2023/03/17 17:59:45;;;;;;;5.28;1.75;;;;;;;20.44;36.48;100552.59;16177554;19;129686;-44
2023/03/17 18:05:08;;;;;;;12.07;1.77;;;;;;;20.67;36.08;100563.56;16185669;19;129976;-47
2023/03/17 18:10:30;;;;;;;13.73;2.17;;;;;;;20.74;36.25;100562.19;16185490;19;129880;-45
2023/03/17 18:15:52;;;;;;;17.48;2.38;;;;;;;20.75;36.07;100563.03;16187761;19;134277;-45
2023/03/17 18:21:16;;;;;;;17.00;2.33;;;;;;;20.73;36.43;100568.88;16188675;19;131051;-53
2023/03/17 18:26:38;;;;;;;10.60;2.13;;;;;;;20.70;36.65;100558.28;16185476;19;130523;-49
2023/03/17 18:32:00;;;;;;;8.88;2.38;;;;;;;20.60;36.72;100567.41;16183023;19;130255;-43
2023/03/17 18:37:22;;;;;;;12.95;2.00;;;;;;;20.50;36.89;100575.69;16162977;19;130855;-44
2023/03/17 18:42:44;;;;;;;10.60;1.65;;;;;;;20.38;37.28;100573.09;16178010;19;130526;-49
2023/03/17 18:48:06;;;;;;;18.80;2.65;;;;;;;20.31;37.24;100577.22;16187954;19;130601;-44
2023/03/17 18:53:29;;;;;;;37.42;3.30;;;;;;;20.26;37.20;100581.63;16187459;19;131165;-45
2023/03/17 18:58:51;;;;;;;20.90;2.50;;;;;;;20.20;37.31;100576.28;16188863;19;130329;-44
2023/03/17 19:04:13;;;;;;;187.40;14.52;;;;;;;20.14;37.55;100576.25;16188835;19;130222;-47
2023/03/17 19:09:35;;;;;;;46.92;3.95;;;;;;;20.14;37.96;100578.19;16130035;19;130595;-46
2023/03/17 19:14:58;;;;;;;30.63;3.20;;;;;;;20.22;37.57;100579.66;16126422;19;131667;-47
2023/03/17 19:20:19;;;;;;;29.55;3.15;;;;;;;20.52;37.31;100576.25;16122917;19;130962;-45
2023/03/17 19:25:41;;;;;;;30.80;2.95;;;;;;;20.96;37.24;100583.47;16121155;19;130810;-48
2023/03/17 19:31:03;;;;;;;19.08;2.75;;;;;;;21.39;36.85;100588.94;16121651;19;129396;-44
2023/03/17 19:36:25;;;;;;;21.33;2.88;;;;;;;21.73;36.37;100579.28;16122869;19;130054;-45
2023/03/17 19:41:48;;;;;;;18.45;3.35;;;;;;;21.94;35.97;100580.16;16119432;19;129202;-49
2023/03/17 19:47:10;;;;;;;22.92;2.60;;;;;;;22.01;36.05;100588.22;16118410;19;131962;-46
2023/03/17 19:52:32;;;;;;;23.95;2.92;;;;;;;21.96;35.96;100580.72;16117997;19;131233;-50
2023/03/17 19:57:55;;;;;;;38.60;3.30;;;;;;;21.87;35.83;100593.53;16118437;19;131091;-47
2023/03/17 20:03:17;;;;;;;21.23;3.47;;;;;;;21.76;36.18;100601.88;16117980;19;130221;-48
2023/03/17 20:08:43;;;;;;;20.85;2.67;;;;;;;21.66;36.53;100608.25;16115789;19;130669;-45
2023/03/17 20:14:05;;;;;;;27.45;3.10;;;;;;;21.55;36.57;100616.81;16116648;19;130709;-45
2023/03/17 20:19:28;;;;;;;17.67;2.53;;;;;;;21.43;36.75;100626.22;16115866;19;130554;-49
2023/03/17 20:24:49;;;;;;;16.77;2.72;;;;;;;21.32;36.91;100624.50;16118760;19;129636;-44
2023/03/17 20:30:11;;;;;;;18.08;3.35;;;;;;;21.27;36.66;100616.16;16117579;19;130927;-47
2023/03/17 20:35:33;;;;;;;12.82;2.25;;;;;;;21.25;37.19;100623.94;16114757;19;130064;-45
2023/03/17 20:41:13;;;;;;;20.75;2.35;;;;;;;21.36;36.89;100631.22;16118665;19;130956;-46
2023/03/17 20:46:35;;;;;;;11.38;2.33;;;;;;;21.62;36.36;100634.94;16116340;19;129910;-45
2023/03/17 20:51:57;;;;;;;23.98;2.33;;;;;;;21.92;36.26;100632.50;16120385;19;130809;-49
2023/03/17 20:57:19;;;;;;;12.80;2.25;;;;;;;22.21;35.75;100630.09;16116879;19;129452;-46
2023/03/17 21:02:41;;;;;;;13.15;2.33;;;;;;;22.46;35.57;100638.69;16115559;19;130932;-46
2023/03/17 21:08:04;;;;;;;8.65;1.77;;;;;;;22.64;35.61;100646.50;16119151;19;130157;-47
2023/03/17 21:13:26;;;;;;;16.98;2.55;;;;;;;22.70;35.38;100659.31;16117826;19;131921;-46
2023/03/17 21:18:48;;;;;;;28.25;2.88;;;;;;;22.64;35.55;100671.59;16113285;19;131096;-50
2023/03/17 21:24:37;;;;;;;17.83;2.72;;;;;;;22.54;35.62;100680.78;16118634;19;130192;-48
2023/03/17 21:29:58;;;;;;;31.10;2.83;;;;;;;22.41;36.19;100676.59;16113622;19;131137;-48
2023/03/17 21:35:22;;;;;;;29.85;3.00;;;;;;;22.27;36.35;100679.13;16114849;19;129461;-48
2023/03/17 21:40:44;;;;;;;25.85;2.95;;;;;;;22.10;36.39;100673.78;16114253;19;129470;-47
2023/03/17 21:46:06;;;;;;;15.38;2.63;;;;;;;21.98;36.90;100670.41;16111393;19;130284;-46
2023/03/17 21:51:28;;;;;;;27.65;3.60;;;;;;;21.82;36.87;100656.44;16112279;19;132518;-51
2023/03/17 21:56:51;;;;;;;29.98;3.15;;;;;;;21.70;37.06;100658.63;16110301;19;129533;-51
2023/03/17 22:02:16;;;;;;;31.10;2.25;;;;;;;21.57;37.15;100642.44;16111547;19;133384;-48
2023/03/17 22:07:39;;;;;;;25.80;2.70;;;;;;;21.47;37.24;100654.38;16112942;19;134078;-47
2023/03/17 22:13:02;;;;;;;29.48;2.95;;;;;;;21.37;37.64;100655.97;16111389;19;130679;-46
2023/03/17 22:18:24;;;;;;;28.00;2.47;;;;;;;21.26;37.40;100670.94;16108815;19;129515;-48
2023/03/17 22:23:46;;;;;;;16.52;2.60;;;;;;;21.19;37.30;100670.38;16111867;19;130496;-44
2023/03/17 22:29:08;;;;;;;14.63;2.22;;;;;;;21.11;37.42;100670.91;16116015;19;129143;-45
2023/03/17 22:34:30;;;;;;;19.77;3.08;;;;;;;21.03;37.51;100677.78;16110446;19;130027;-44
2023/03/17 22:39:51;;;;;;;18.67;2.25;;;;;;;20.98;37.74;100683.31;16111667;19;129708;-45
2023/03/17 22:45:13;;;;;;;12.60;2.33;;;;;;;20.92;38.01;100698.31;16121343;19;129519;-44
2023/03/17 22:50:35;;;;;;;12.98;1.90;;;;;;;20.84;38.13;100694.91;16127326;19;129621;-44
2023/03/17 22:55:58;;;;;;;16.48;2.47;;;;;;;20.80;38.21;100695.72;16114904;19;129619;-46
2023/03/17 23:01:22;;;;;;;18.50;2.83;;;;;;;20.70;37.98;100693.66;16115208;19;130193;-48
2023/03/17 23:06:45;;;;;;;15.02;3.03;;;;;;;20.63;38.09;100695.81;16123663;19;129712;-47
2023/03/17 23:12:07;;;;;;;17.88;2.65;;;;;;;20.52;38.29;100695.75;16122031;19;129346;-43
2023/03/17 23:17:30;;;;;;;18.00;2.00;;;;;;;20.44;38.46;100690.66;16121444;19;129959;-46
2023/03/17 23:22:52;;;;;;;10.43;2.20;;;;;;;20.37;38.34;100690.88;16120559;19;129535;-45
2023/03/17 23:28:14;;;;;;;14.20;2.53;;;;;;;20.30;38.12;100690.25;16123548;19;131638;-47
2023/03/17 23:33:37;;;;;;;17.15;2.58;;;;;;;20.24;38.35;100689.38;16124865;19;130637;-45
2023/03/17 23:39:00;;;;;;;16.42;1.83;;;;;;;20.19;38.37;100696.81;16121625;19;131182;-44
2023/03/17 23:44:23;;;;;;;13.85;2.28;;;;;;;20.13;38.15;100690.38;16121380;19;130557;-43
2023/03/17 23:49:46;;;;;;;15.38;2.40;;;;;;;20.09;38.21;100700.34;16122338;19;131405;-49
2023/03/17 23:55:10;;;;;;;16.00;2.20;;;;;;;20.04;38.61;100700.28;16121031;19;131300;-46
